sensor_id;sensor_type;location;lat;lon;timestamp;pressure;altitude;pressure_sealevel;temperature;humidity
24610;BME280;12758;47.890;11.694;2023-05-22T00:01:17;93458.78;;;18.96;100.00
24610;BME280;12758;47.890;11.694;2023-05-22T00:03:44;93464.69;;;19.01;100.00
24610;BME280;12758;47.890;11.694;2023-05-22T00:06:10;93470.56;;;19.03;100.00
24610;BME280;12758;47.890;11.694;2023-05-22T00:08:36;93461.53;;;18.99;100.00
24610;BME280;12758;47.890;11.694;2023-05-22T00:11:02;93468.97;;;18.88;100.00
24610;BME280;12758;47.890;11.694;2023-05-22T00:13:28;93469.75;;;18.85;100.00
24610;BME280;12758;47.890;11.694;2023-05-22T00:15:55;93464.25;;;18.92;100.00
24610;BME280;12758;47.890;11.694;2023-05-22T00:18:22;93462.66;;;18.77;100.00
24610;BME280;12758;47.890;11.694;2023-05-22T00:20:49;93465.03;;;18.75;100.00
24610;BME280;12758;47.890;11.694;2023-05-22T00:23:16;93468.13;;;18.70;100.00
24610;BME280;12758;47.890;11.694;2023-05-22T00:25:42;93472.88;;;18.76;100.00
24610;BME280;12758;47.890;11.694;2023-05-22T00:28:10;93466.19;;;18.81;100.00
24610;BME280;12758;47.890;11.694;2023-05-22T00:30:36;93475.97;;;18.68;100.00
24610;BME280;12758;47.890;11.694;2023-05-22T00:33:03;93474.41;;;18.67;100.00
24610;BME280;12758;47.890;11.694;2023-05-22T00:35:29;93468.16;;;18.73;100.00
24610;BME280;12758;47.890;11.694;2023-05-22T00:37:55;93472.09;;;18.72;100.00
24610;BME280;12758;47.890;11.694;2023-05-22T00:40:21;93468.94;;;18.77;100.00
24610;BME280;12758;47.890;11.694;2023-05-22T00:42:47;93465.03;;;18.75;100.00
24610;BME280;12758;47.890;11.694;2023-05-22T00:45:13;93468.88;;;18.59;100.00
24610;BME280;12758;47.890;11.694;2023-05-22T00:47:40;93465.34;;;18.59;100.00
24610;BME280;12758;47.890;11.694;2023-05-22T00:50:08;93461.78;;;18.51;100.00
24610;BME280;12758;47.890;11.694;2023-05-22T00:52:37;93457.47;;;18.50;100.00
24610;BME280;12758;47.890;11.694;2023-05-22T00:55:05;93453.13;;;18.46;100.00
24610;BME280;12758;47.890;11.694;2023-05-22T00:57:31;93451.53;;;18.41;100.00
24610;BME280;12758;47.890;11.694;2023-05-22T00:59:58;93455.84;;;18.35;94.39
24610;BME280;12758;47.890;11.694;2023-05-22T01:02:24;93457.81;;;18.38;100.00
24610;BME280;12758;47.890;11.694;2023-05-22T01:04:50;93460.16;;;18.36;100.00
24610;BME280;12758;47.890;11.694;2023-05-22T01:07:20;93464.88;;;18.39;100.00
24610;BME280;12758;47.890;11.694;2023-05-22T01:09:48;93463.31;;;18.38;100.00
24610;BME280;12758;47.890;11.694;2023-05-22T01:12:19;93465.28;;;18.45;100.00
24610;BME280;12758;47.890;11.694;2023-05-22T01:14:47;93464.88;;;18.39;100.00
24610;BME280;12758;47.890;11.694;2023-05-22T01:17:19;93468.44;;;18.43;100.00
24610;BME280;12758;47.890;11.694;2023-05-22T01:19:56;93464.09;;;18.38;100.00
24610;BME280;12758;47.890;11.694;2023-05-22T01:28:35;93475.84;;;18.32;100.00
24610;BME280;12758;47.890;11.694;2023-05-22T01:31:07;93474.25;;;18.27;100.00
24610;BME280;12758;47.890;11.694;2023-05-22T01:33:40;93478.16;;;18.26;100.00
24610;BME280;12758;47.890;11.694;2023-05-22T01:36:07;93476.59;;;18.22;100.00
24610;BME280;12758;47.890;11.694;2023-05-22T01:38:33;93478.16;;;18.23;100.00
24610;BME280;12758;47.890;11.694;2023-05-22T01:41:00;93475.03;;;18.24;100.00
24610;BME280;12758;47.890;11.694;2023-05-22T01:43:26;93471.88;;;18.19;100.00
24610;BME280;12758;47.890;11.694;2023-05-22T01:45:52;93476.56;;;18.14;100.00
24610;BME280;12758;47.890;11.694;2023-05-22T01:48:18;93476.53;;;18.07;100.00
24610;BME280;12758;47.890;11.694;2023-05-22T01:50:46;93479.63;;;18.02;100.00
24610;BME280;12758;47.890;11.694;2023-05-22T01:53:16;93479.63;;;18.02;100.00
24610;BME280;12758;47.890;11.694;2023-05-22T01:55:46;93489.84;;;18.05;100.00
24610;BME280;12758;47.890;11.694;2023-05-22T01:58:19;93488.28;;;18.04;100.00
24610;BME280;12758;47.890;11.694;2023-05-22T02:00:49;93485.09;;;17.99;100.00
24610;BME280;12758;47.890;11.694;2023-05-22T02:03:21;93488.22;;;17.97;100.00
24610;BME280;12758;47.890;11.694;2023-05-22T02:05:53;93485.88;;;17.96;100.00
24610;BME280;12758;47.890;11.694;2023-05-22T02:08:20;93482.69;;;17.90;100.00
24610;BME280;12758;47.890;11.694;2023-05-22T02:10:47;93481.94;;;17.93;100.00
24610;BME280;12758;47.890;11.694;2023-05-22T02:13:14;93489.00;;;17.98;100.00
24610;BME280;12758;47.890;11.694;2023-05-22T02:15:42;93487.47;;;18.00;100.00
24610;BME280;12758;47.890;11.694;2023-05-22T02:18:09;93484.25;;;17.91;100.00
24610;BME280;12758;47.890;11.694;2023-05-22T02:20:37;93477.59;;;17.85;100.00
24610;BME280;12758;47.890;11.694;2023-05-22T02:23:03;93482.69;;;17.86;100.00
24610;BME280;12758;47.890;11.694;2023-05-22T02:25:30;93472.03;;;17.81;100.00
24610;BME280;12758;47.890;11.694;2023-05-22T02:27:55;93477.88;;;17.76;100.00
24610;BME280;12758;47.890;11.694;2023-05-22T02:30:22;93477.94;;;17.80;100.00
24610;BME280;12758;47.890;11.694;2023-05-22T02:32:48;93477.16;;;17.83;100.00
24610;BME280;12758;47.890;11.694;2023-05-22T02:35:14;93487.38;;;17.82;100.00
24610;BME280;12758;47.890;11.694;2023-05-22T02:37:40;93478.13;;;17.53;92.56
24610;BME280;12758;47.890;11.694;2023-05-22T02:40:09;93482.47;;;17.61;100.00
24610;BME280;12758;47.890;11.694;2023-05-22T02:42:35;93492.69;;;17.61;100.00
24610;BME280;12758;47.890;11.694;2023-05-22T02:45:01;93487.63;;;17.66;100.00
24610;BME280;12758;47.890;11.694;2023-05-22T02:47:27;93486.44;;;17.67;100.00
24610;BME280;12758;47.890;11.694;2023-05-22T02:49:53;93493.13;;;17.66;100.00
24610;BME280;12758;47.890;11.694;2023-05-22T02:52:19;93493.47;;;17.61;100.00
24610;BME280;12758;47.890;11.694;2023-05-22T02:54:47;93489.56;;;17.62;100.00
24610;BME280;12758;47.890;11.694;2023-05-22T02:57:13;93483.25;;;17.62;100.00
24610;BME280;12758;47.890;11.694;2023-05-22T02:59:39;93493.47;;;17.61;100.00
24610;BME280;12758;47.890;11.694;2023-05-22T03:02:06;93494.19;;;17.55;100.00
24610;BME280;12758;47.890;11.694;2023-05-22T03:04:32;93497.34;;;17.53;100.00
24610;BME280;12758;47.890;11.694;2023-05-22T03:06:58;93498.84;;;17.47;100.00
24610;BME280;12758;47.890;11.694;2023-05-22T03:09:25;93498.03;;;17.43;100.00
24610;BME280;12758;47.890;11.694;2023-05-22T03:11:52;93503.88;;;17.38;100.00
24610;BME280;12758;47.890;11.694;2023-05-22T03:14:18;93500.31;;;17.34;100.00
24610;BME280;12758;47.890;11.694;2023-05-22T03:16:44;93503.47;;;17.36;100.00
24610;BME280;12758;47.890;11.694;2023-05-22T03:19:11;93508.94;;;17.36;100.00
24610;BME280;12758;47.890;11.694;2023-05-22T03:21:37;93504.22;;;17.33;100.00
24610;BME280;12758;47.890;11.694;2023-05-22T03:24:04;93515.94;;;17.30;100.00
24610;BME280;12758;47.890;11.694;2023-05-22T03:26:30;93514.38;;;17.29;100.00
24610;BME280;12758;47.890;11.694;2023-05-22T03:28:56;93510.06;;;17.28;100.00
24610;BME280;12758;47.890;11.694;2023-05-22T03:31:23;93514.78;;;17.27;100.00
24610;BME280;12758;47.890;11.694;2023-05-22T03:33:49;93507.31;;;17.28;100.00
24610;BME280;12758;47.890;11.694;2023-05-22T03:36:15;93512.06;;;17.31;100.00
24610;BME280;12758;47.890;11.694;2023-05-22T03:38:41;93512.81;;;17.28;100.00
24610;BME280;12758;47.890;11.694;2023-05-22T03:41:07;93514.81;;;16.90;100.00
24610;BME280;12758;47.890;11.694;2023-05-22T03:43:33;93517.34;;;17.09;100.00
24610;BME280;12758;47.890;11.694;2023-05-22T03:45:59;93517.75;;;17.11;100.00
24610;BME280;12758;47.890;11.694;2023-05-22T03:48:25;93519.75;;;17.14;100.00
24610;BME280;12758;47.890;11.694;2023-05-22T03:50:51;93518.16;;;17.13;100.00
24610;BME280;12758;47.890;11.694;2023-05-22T03:53:17;93512.63;;;17.10;100.00
24610;BME280;12758;47.890;11.694;2023-05-22T03:55:43;93522.03;;;17.09;100.00
24610;BME280;12758;47.890;11.694;2023-05-22T03:58:09;93509.53;;;17.11;100.00
24610;BME280;12758;47.890;11.694;2023-05-22T04:00:35;93515.41;;;17.13;100.00
24610;BME280;12758;47.890;11.694;2023-05-22T04:03:03;93510.31;;;17.12;100.00
24610;BME280;12758;47.890;11.694;2023-05-22T04:05:29;93516.16;;;17.10;100.00
24610;BME280;12758;47.890;11.694;2023-05-22T04:07:56;93519.69;;;17.11;100.00
24610;BME280;12758;47.890;11.694;2023-05-22T04:10:22;93519.31;;;17.12;100.00
24610;BME280;12758;47.890;11.694;2023-05-22T04:12:48;93516.91;;;17.07;100.00
24610;BME280;12758;47.890;11.694;2023-05-22T04:15:14;93518.88;;;17.07;100.00
24610;BME280;12758;47.890;11.694;2023-05-22T04:17:40;93526.72;;;17.05;100.00
24610;BME280;12758;47.890;11.694;2023-05-22T04:20:07;93527.50;;;17.05;100.00
24610;BME280;12758;47.890;11.694;2023-05-22T04:22:33;93528.25;;;17.02;100.00
24610;BME280;12758;47.890;11.694;2023-05-22T04:24:59;93525.50;;;17.02;100.00
24610;BME280;12758;47.890;11.694;2023-05-22T04:27:25;93532.94;;;17.02;100.00
24610;BME280;12758;47.890;11.694;2023-05-22T04:29:54;93523.53;;;17.03;100.00
24610;BME280;12758;47.890;11.694;2023-05-22T04:32:20;93534.84;;;16.64;100.00
24610;BME280;12758;47.890;11.694;2023-05-22T04:34:48;93526.19;;;16.58;100.00
24610;BME280;12758;47.890;11.694;2023-05-22T04:37:16;93536.44;;;16.65;100.00
24610;BME280;12758;47.890;11.694;2023-05-22T04:39:42;93542.72;;;16.69;100.00
24610;BME280;12758;47.890;11.694;2023-05-22T04:42:11;93536.56;;;16.75;100.00
24610;BME280;12758;47.890;11.694;2023-05-22T04:44:39;93541.41;;;16.86;100.00
24610;BME280;12758;47.890;11.694;2023-05-22T04:47:05;93534.31;;;16.85;100.00
24610;BME280;12758;47.890;11.694;2023-05-22T04:49:32;93538.16;;;16.76;100.00
24610;BME280;12758;47.890;11.694;2023-05-22T04:51:58;93542.75;;;16.72;100.00
24610;BME280;12758;47.890;11.694;2023-05-22T04:54:44;93538.00;;;16.66;100.00
24610;BME280;12758;47.890;11.694;2023-05-22T04:57:11;93538.69;;;16.59;100.00
24610;BME280;12758;47.890;11.694;2023-05-22T04:59:37;93543.03;;;16.30;100.00
24610;BME280;12758;47.890;11.694;2023-05-22T05:02:03;93543.19;;;16.11;100.00
24610;BME280;12758;47.890;11.694;2023-05-22T05:04:29;93540.69;;;16.28;100.00
24610;BME280;12758;47.890;11.694;2023-05-22T05:06:55;93548.53;;;16.00;100.00
24610;BME280;12758;47.890;11.694;2023-05-22T05:09:22;93560.06;;;15.63;100.00
24610;BME280;12758;47.890;11.694;2023-05-22T05:11:49;93543.34;;;15.95;100.00
24610;BME280;12758;47.890;11.694;2023-05-22T05:14:15;93545.84;;;15.77;100.00
24610;BME280;12758;47.890;11.694;2023-05-22T05:16:41;93549.00;;;15.56;100.00
24610;BME280;12758;47.890;11.694;2023-05-22T05:19:07;93550.09;;;15.74;100.00
24610;BME280;12758;47.890;11.694;2023-05-22T05:21:33;93540.00;;;15.78;100.00
24610;BME280;12758;47.890;11.694;2023-05-22T05:23:59;93549.09;;;15.63;100.00
24610;BME280;12758;47.890;11.694;2023-05-22T05:26:25;93541.69;;;15.87;100.00
24610;BME280;12758;47.890;11.694;2023-05-22T05:28:52;93540.09;;;15.86;100.00
24610;BME280;12758;47.890;11.694;2023-05-22T05:31:18;93548.63;;;15.80;100.00
24610;BME280;12758;47.890;11.694;2023-05-22T05:33:45;93542.41;;;15.83;100.00
24610;BME280;12758;47.890;11.694;2023-05-22T05:36:11;93546.44;;;15.90;100.00
24610;BME280;12758;47.890;11.694;2023-05-22T05:38:37;93545.13;;;15.80;100.00
24610;BME280;12758;47.890;11.694;2023-05-22T05:41:03;93543.34;;;15.95;100.00
24610;BME280;12758;47.890;11.694;2023-05-22T05:43:29;93550.44;;;15.96;100.00
24610;BME280;12758;47.890;11.694;2023-05-22T05:45:56;93552.31;;;15.92;100.00
24610;BME280;12758;47.890;11.694;2023-05-22T05:48:22;93542.63;;;15.98;100.00
24610;BME280;12758;47.890;11.694;2023-05-22T05:50:48;93544.91;;;15.92;100.00
24610;BME280;12758;47.890;11.694;2023-05-22T05:53:14;93542.53;;;15.91;100.00
24610;BME280;12758;47.890;11.694;2023-05-22T05:55:40;93549.94;;;15.90;100.00
24610;BME280;12758;47.890;11.694;2023-05-22T05:58:06;93549.56;;;15.92;100.00
24610;BME280;12758;47.890;11.694;2023-05-22T06:00:32;93557.09;;;15.98;100.00
24610;BME280;12758;47.890;11.694;2023-05-22T06:02:58;93552.13;;;16.07;100.00
24610;BME280;12758;47.890;11.694;2023-05-22T06:05:24;93554.53;;;16.09;100.00
24610;BME280;12758;47.890;11.694;2023-05-22T06:07:53;93550.34;;;16.19;100.00
24610;BME280;12758;47.890;11.694;2023-05-22T06:10:22;93552.47;;;16.33;100.00
24610;BME280;12758;47.890;11.694;2023-05-22T06:12:48;93556.34;;;16.28;100.00
24610;BME280;12758;47.890;11.694;2023-05-22T06:15:14;93563.38;;;16.29;100.00
24610;BME280;12758;47.890;11.694;2023-05-22T06:17:40;93561.06;;;16.31;100.00
24610;BME280;12758;47.890;11.694;2023-05-22T06:20:09;93551.06;;;16.46;100.00
24610;BME280;12758;47.890;11.694;2023-05-22T06:22:35;93565.25;;;16.51;100.00
24610;BME280;12758;47.890;11.694;2023-05-22T06:25:01;93555.06;;;16.52;100.00
24610;BME280;12758;47.890;11.694;2023-05-22T06:27:27;93559.09;;;16.62;100.00
24610;BME280;12758;47.890;11.694;2023-05-22T06:29:53;93553.72;;;16.72;100.00
24610;BME280;12758;47.890;11.694;2023-05-22T06:32:19;93549.03;;;16.69;100.00
24610;BME280;12758;47.890;11.694;2023-05-22T06:34:47;93550.56;;;16.67;100.00
24610;BME280;12758;47.890;11.694;2023-05-22T06:37:14;93544.38;;;16.73;100.00
24610;BME280;12758;47.890;11.694;2023-05-22T06:39:41;93550.06;;;16.91;100.00
24610;BME280;12758;47.890;11.694;2023-05-22T06:42:07;93546.88;;;16.86;100.00
24610;BME280;12758;47.890;11.694;2023-05-22T06:44:33;93546.13;;;16.89;100.00
24610;BME280;12758;47.890;11.694;2023-05-22T06:46:59;93553.28;;;17.00;100.00
24610;BME280;12758;47.890;11.694;2023-05-22T06:49:25;93544.06;;;17.19;100.00
24610;BME280;12758;47.890;11.694;2023-05-22T06:51:51;93543.34;;;17.26;100.00
24610;BME280;12758;47.890;11.694;2023-05-22T06:54:17;93551.25;;;17.31;100.00
24610;BME280;12758;47.890;11.694;2023-05-22T06:56:45;93541.06;;;17.32;100.00
24610;BME280;12758;47.890;11.694;2023-05-22T06:59:11;93537.16;;;17.36;100.00
24610;BME280;12758;47.890;11.694;2023-05-22T07:01:37;93540.38;;;17.45;100.00
24610;BME280;12758;47.890;11.694;2023-05-22T07:04:03;93544.38;;;17.55;100.00
24610;BME280;12758;47.890;11.694;2023-05-22T07:06:30;93551.00;;;17.95;100.00
24610;BME280;12758;47.890;11.694;2023-05-22T07:08:58;93553.88;;;18.16;100.00
24610;BME280;12758;47.890;11.694;2023-05-22T07:11:25;93560.97;;;18.21;100.00
24610;BME280;12758;47.890;11.694;2023-05-22T07:13:51;93559.78;;;18.19;100.00
24610;BME280;12758;47.890;11.694;2023-05-22T07:16:16;93559.63;;;17.97;100.00
24610;BME280;12758;47.890;11.694;2023-05-22T07:18:42;93561.16;;;17.91;100.00
24610;BME280;12758;47.890;11.694;2023-05-22T07:21:10;93561.28;;;18.09;100.00
24610;BME280;12758;47.890;11.694;2023-05-22T07:23:36;93566.19;;;18.44;100.00
24610;BME280;12758;47.890;11.694;2023-05-22T07:26:02;93566.06;;;18.23;100.00
24610;BME280;12758;47.890;11.694;2023-05-22T07:28:29;93567.59;;;18.16;100.00
24610;BME280;12758;47.890;11.694;2023-05-22T07:30:55;93573.31;;;18.52;100.00
24610;BME280;12758;47.890;11.694;2023-05-22T07:33:21;93573.47;;;18.84;100.00
24610;BME280;12758;47.890;11.694;2023-05-22T07:35:47;93578.16;;;18.84;100.00
24610;BME280;12758;47.890;11.694;2023-05-22T07:38:13;93580.41;;;18.60;100.00
24610;BME280;12758;47.890;11.694;2023-05-22T07:40:39;93565.69;;;19.01;100.00
24610;BME280;12758;47.890;11.694;2023-05-22T07:43:05;93568.81;;;19.03;100.00
24610;BME280;12758;47.890;11.694;2023-05-22T07:45:32;93569.22;;;19.01;100.00
24610;BME280;12758;47.890;11.694;2023-05-22T07:47:58;93565.66;;;18.97;100.00
24610;BME280;12758;47.890;11.694;2023-05-22T07:50:26;93568.09;;;19.45;100.00
24610;BME280;12758;47.890;11.694;2023-05-22T07:52:54;93567.25;;;19.05;100.00
24610;BME280;12758;47.890;11.694;2023-05-22T07:55:20;93564.94;;;19.22;100.00
24610;BME280;12758;47.890;11.694;2023-05-22T07:57:46;93576.03;;;19.97;96.65
24610;BME280;12758;47.890;11.694;2023-05-22T08:00:13;93565.03;;;19.97;93.32
24610;BME280;12758;47.890;11.694;2023-05-22T08:02:42;93560.28;;;19.80;96.15
24610;BME280;12758;47.890;11.694;2023-05-22T08:05:08;93565.03;;;19.97;95.81
24610;BME280;12758;47.890;11.694;2023-05-22T08:07:34;93561.03;;;20.34;91.84
24610;BME280;12758;47.890;11.694;2023-05-22T08:10:01;93570.06;;;20.34;88.08
24610;BME280;12758;47.890;11.694;2023-05-22T08:12:28;93568.09;;;20.31;88.09
24610;BME280;12758;47.890;11.694;2023-05-22T08:14:54;93563.44;;;19.99;90.24
24610;BME280;12758;47.890;11.694;2023-05-22T08:17:20;93565.81;;;19.80;93.50
24610;BME280;12758;47.890;11.694;2023-05-22T08:19:46;93561.09;;;19.66;93.51
24610;BME280;12758;47.890;11.694;2023-05-22T08:22:12;93554.41;;;19.67;97.25
24610;BME280;12758;47.890;11.694;2023-05-22T08:24:38;93569.72;;;19.93;100.00
24610;BME280;12758;47.890;11.694;2023-05-22T08:27:05;93558.72;;;20.04;99.88
24610;BME280;12758;47.890;11.694;2023-05-22T08:29:31;93569.34;;;20.19;100.00
24610;BME280;12758;47.890;11.694;2023-05-22T08:31:57;93554.34;;;20.24;100.00
24610;BME280;12758;47.890;11.694;2023-05-22T08:34:23;93554.31;;;20.53;91.19
24610;BME280;12758;47.890;11.694;2023-05-22T08:36:49;93558.63;;;20.50;90.69
24610;BME280;12758;47.890;11.694;2023-05-22T08:39:16;93553.88;;;20.65;94.03
24610;BME280;12758;47.890;11.694;2023-05-22T08:41:43;93561.75;;;20.63;96.50
24610;BME280;12758;47.890;11.694;2023-05-22T08:44:09;93560.09;;;20.83;93.66
24610;BME280;12758;47.890;11.694;2023-05-22T08:46:35;93553.53;;;20.45;91.15
24610;BME280;12758;47.890;11.694;2023-05-22T08:49:06;93558.56;;;20.75;91.97
24610;BME280;12758;47.890;11.694;2023-05-22T08:51:35;93553.78;;;20.83;93.07
24610;BME280;12758;47.890;11.694;2023-05-22T08:54:04;93564.06;;;20.79;91.18
24610;BME280;12758;47.890;11.694;2023-05-22T08:56:31;93549.13;;;20.69;90.93
24610;BME280;12758;47.890;11.694;2023-05-22T08:58:57;93551.09;;;20.68;92.49
24610;BME280;12758;47.890;11.694;2023-05-22T09:01:24;93549.97;;;20.41;95.73
24610;BME280;12758;47.890;11.694;2023-05-22T09:03:50;93556.28;;;20.56;100.00
24610;BME280;12758;47.890;11.694;2023-05-22T09:06:16;93548.16;;;21.08;97.52
24610;BME280;12758;47.890;11.694;2023-05-22T09:08:43;93547.81;;;20.99;96.85
24610;BME280;12758;47.890;11.694;2023-05-22T09:11:09;93555.13;;;21.30;93.47
24610;BME280;12758;47.890;11.694;2023-05-22T09:13:37;93561.56;;;21.13;100.00
24610;BME280;12758;47.890;11.694;2023-05-22T09:16:07;93555.25;;;21.12;94.68
24610;BME280;12758;47.890;11.694;2023-05-22T09:18:33;93556.00;;;21.16;93.26
24610;BME280;12758;47.890;11.694;2023-05-22T09:20:59;93549.53;;;21.48;94.96
24610;BME280;12758;47.890;11.694;2023-05-22T09:23:27;93553.44;;;21.51;90.00
24610;BME280;12758;47.890;11.694;2023-05-22T09:25:54;93551.88;;;21.50;96.46
24610;BME280;12758;47.890;11.694;2023-05-22T09:28:21;93543.25;;;21.40;92.92
24610;BME280;12758;47.890;11.694;2023-05-22T09:30:47;93549.06;;;21.57;93.27
24610;BME280;12758;47.890;11.694;2023-05-22T09:33:16;93553.34;;;21.65;95.21
24610;BME280;12758;47.890;11.694;2023-05-22T09:35:42;93542.50;;;21.36;88.76
24610;BME280;12758;47.890;11.694;2023-05-22T09:38:10;93561.22;;;21.70;96.58
24610;BME280;12758;47.890;11.694;2023-05-22T09:40:37;93551.72;;;21.75;89.59
24610;BME280;12758;47.890;11.694;2023-05-22T09:43:05;93555.63;;;21.77;92.96
24610;BME280;12758;47.890;11.694;2023-05-22T09:45:33;93551.63;;;21.85;88.04
24610;BME280;12758;47.890;11.694;2023-05-22T09:47:59;93551.25;;;21.83;95.24
24610;BME280;12758;47.890;11.694;2023-05-22T09:50:25;93549.06;;;21.60;83.34
24610;BME280;12758;47.890;11.694;2023-05-22T09:52:51;93548.34;;;21.98;88.67
24610;BME280;12758;47.890;11.694;2023-05-22T09:55:17;93549.78;;;22.17;92.72
24610;BME280;12758;47.890;11.694;2023-05-22T09:57:46;93552.97;;;22.12;88.12
24610;BME280;12758;47.890;11.694;2023-05-22T10:00:14;93545.97;;;22.00;87.04
24610;BME280;12758;47.890;11.694;2023-05-22T10:02:45;93548.66;;;22.07;91.65
24610;BME280;12758;47.890;11.694;2023-05-22T10:05:12;93545.84;;;22.14;86.06
24610;BME280;12758;47.890;11.694;2023-05-22T10:07:47;93546.16;;;21.78;87.11
24610;BME280;12758;47.890;11.694;2023-05-22T10:10:15;93538.84;;;22.02;91.01
24610;BME280;12758;47.890;11.694;2023-05-22T10:12:43;93537.63;;;22.07;92.75
24610;BME280;12758;47.890;11.694;2023-05-22T10:15:10;93544.63;;;22.60;91.87
24610;BME280;12758;47.890;11.694;2023-05-22T10:17:36;93543.03;;;22.59;87.97
24610;BME280;12758;47.890;11.694;2023-05-22T10:20:04;93530.06;;;22.11;86.62
24610;BME280;12758;47.890;11.694;2023-05-22T10:22:33;93548.72;;;22.45;88.66
24610;BME280;12758;47.890;11.694;2023-05-22T10:25:00;93542.00;;;22.46;83.06
24610;BME280;12758;47.890;11.694;2023-05-22T10:27:27;93535.47;;;22.29;85.58
24610;BME280;12758;47.890;11.694;2023-05-22T10:29:54;93541.56;;;22.51;82.75
24610;BME280;12758;47.890;11.694;2023-05-22T10:32:26;93540.13;;;22.36;84.11
24610;BME280;12758;47.890;11.694;2023-05-22T10:35:00;93540.72;;;22.54;86.78
24610;BME280;12758;47.890;11.694;2023-05-22T10:37:39;93541.38;;;22.65;79.26
24610;BME280;12758;47.890;11.694;2023-05-22T10:40:08;93535.94;;;22.58;82.40
24610;BME280;12758;47.890;11.694;2023-05-22T10:42:36;93542.59;;;22.64;77.56
24610;BME280;12758;47.890;11.694;2023-05-22T10:45:05;93538.19;;;22.70;74.90
24610;BME280;12758;47.890;11.694;2023-05-22T10:47:32;93530.22;;;22.72;83.26
24610;BME280;12758;47.890;11.694;2023-05-22T10:50:03;93532.84;;;22.87;79.73
24610;BME280;12758;47.890;11.694;2023-05-22T10:52:29;93528.78;;;23.25;79.76
24610;BME280;12758;47.890;11.694;2023-05-22T10:54:58;93531.94;;;23.28;68.09
24610;BME280;12758;47.890;11.694;2023-05-22T10:57:24;93528.25;;;23.07;78.86
24610;BME280;12758;47.890;11.694;2023-05-22T10:59:51;93523.53;;;23.04;80.12
24610;BME280;12758;47.890;11.694;2023-05-22T11:02:31;93536.44;;;23.18;82.24
24610;BME280;12758;47.890;11.694;2023-05-22T11:05:31;93523.19;;;23.02;70.40
24610;BME280;12758;47.890;11.694;2023-05-22T11:08:08;93522.44;;;22.98;73.07
24610;BME280;12758;47.890;11.694;2023-05-22T11:10:53;93525.81;;;23.13;78.03
24610;BME280;12758;47.890;11.694;2023-05-22T11:13:20;93513.22;;;23.08;75.71
24610;BME280;12758;47.890;11.694;2023-05-22T11:15:46;93516.19;;;23.21;73.49
24610;BME280;12758;47.890;11.694;2023-05-22T11:18:12;93521.72;;;23.21;73.58
24610;BME280;12758;47.890;11.694;2023-05-22T11:20:39;93519.44;;;23.43;78.47
24610;BME280;12758;47.890;11.694;2023-05-22T11:23:06;93510.97;;;23.54;77.11
24610;BME280;12758;47.890;11.694;2023-05-22T11:25:33;93517.09;;;23.41;74.33
24610;BME280;12758;47.890;11.694;2023-05-22T11:28:01;93504.59;;;23.02;79.92
24610;BME280;12758;47.890;11.694;2023-05-22T11:30:28;93503.88;;;22.95;82.71
24610;BME280;12758;47.890;11.694;2023-05-22T11:32:56;93502.59;;;23.30;82.61
24610;BME280;12758;47.890;11.694;2023-05-22T11:35:22;93499.06;;;23.30;74.85
24610;BME280;12758;47.890;11.694;2023-05-22T11:37:49;93500.16;;;22.74;80.19
24610;BME280;12758;47.890;11.694;2023-05-22T11:40:16;93497.16;;;23.23;77.56
24610;BME280;12758;47.890;11.694;2023-05-22T11:42:43;93493.34;;;23.67;80.48
24610;BME280;12758;47.890;11.694;2023-05-22T11:45:10;93495.28;;;23.70;76.49
24610;BME280;12758;47.890;11.694;2023-05-22T11:47:36;93484.88;;;23.51;79.74
24610;BME280;12758;47.890;11.694;2023-05-22T11:50:03;93495.44;;;23.60;74.55
24610;BME280;12758;47.890;11.694;2023-05-22T11:52:31;93488.13;;;23.46;74.98
24610;BME280;12758;47.890;11.694;2023-05-22T11:54:57;93477.63;;;23.34;78.85
24610;BME280;12758;47.890;11.694;2023-05-22T11:57:23;93482.25;;;23.67;77.03
24610;BME280;12758;47.890;11.694;2023-05-22T11:59:49;93487.78;;;23.67;80.18
24610;BME280;12758;47.890;11.694;2023-05-22T12:02:17;93487.22;;;23.53;79.81
24610;BME280;12758;47.890;11.694;2023-05-22T12:04:43;93489.22;;;22.98;79.50
24610;BME280;12758;47.890;11.694;2023-05-22T12:07:09;93490.72;;;23.84;87.00
24610;BME280;12758;47.890;11.694;2023-05-22T12:09:37;93488.63;;;23.64;74.89
24610;BME280;12758;47.890;11.694;2023-05-22T12:12:04;93480.34;;;23.37;83.27
24610;BME280;12758;47.890;11.694;2023-05-22T12:14:30;93495.41;;;23.87;81.56
24610;BME280;12758;47.890;11.694;2023-05-22T12:16:56;93488.03;;;23.53;75.52
24610;BME280;12758;47.890;11.694;2023-05-22T12:19:24;93481.47;;;23.67;82.21
24610;BME280;12758;47.890;11.694;2023-05-22T12:21:50;93483.75;;;23.76;75.57
24610;BME280;12758;47.890;11.694;2023-05-22T12:24:16;93485.66;;;23.79;66.30
24610;BME280;12758;47.890;11.694;2023-05-22T12:26:50;93476.13;;;23.53;78.01
24610;BME280;12758;47.890;11.694;2023-05-22T12:29:16;93474.63;;;23.21;77.64
24610;BME280;12758;47.890;11.694;2023-05-22T12:31:42;93485.31;;;23.77;72.37
24610;BME280;12758;47.890;11.694;2023-05-22T12:34:10;93465.66;;;23.13;74.27
24610;BME280;12758;47.890;11.694;2023-05-22T12:36:38;93473.56;;;23.65;65.45
24610;BME280;12758;47.890;11.694;2023-05-22T12:39:06;93462.91;;;23.64;66.48
24610;BME280;12758;47.890;11.694;2023-05-22T12:41:32;93471.06;;;23.75;64.27
24610;BME280;12758;47.890;11.694;2023-05-22T12:43:58;93472.41;;;23.90;58.58
24610;BME280;12758;47.890;11.694;2023-05-22T12:46:26;93458.34;;;23.27;65.73
24610;BME280;12758;47.890;11.694;2023-05-22T12:48:52;93460.94;;;24.11;65.16